This is the latest recevied weather packets stored in our database for station/object W5COG. If no packets are shown the sender has not sent any weather packets the latest 1 day(s).
| Time | Temp. | Humidity | Pressure | Rain* | Wind** | Luminosity | Snow |
|---|---|---|---|---|---|---|---|
| 1836274701 | 23.33° C | 64% | 1015.6 hPa | 0 mm | 0.45 m/s, 119° | 0 W/m² | - |
| 1836274551 | 23.33° C | 65% | 1015.6 hPa | 0 mm | 0.89 m/s, 122° | 0 W/m² | - |
| 1836274401 | 23.33° C | 64% | 1015.6 hPa | 0 mm | 0.89 m/s, 121° | 0 W/m² | - |
| 1836274251 | 23.33° C | 64% | 1015.6 hPa | 0 mm | 0.89 m/s, 131° | 0 W/m² | - |
| 1836274101 | 23.33° C | 64% | 1015.6 hPa | 0 mm | 1.34 m/s, 114° | 0 W/m² | - |
| 1778048128 | 9.44° C | 68% | 1013 hPa | 0 mm | 1.34 m/s, 56° | 0 W/m² | - |
| 1778047828 | 9.44° C | 69% | 1013.1 hPa | 0 mm | 1.79 m/s, 66° | 0 W/m² | - |
| 1778047528 | 9.44° C | 69% | 1013.2 hPa | 0 mm | 1.34 m/s, 59° | 0 W/m² | - |
| 1778047228 | 9.44° C | 68% | 1013.1 hPa | 0 mm | 2.24 m/s, 59° | 0 W/m² | - |
| 1778046928 | 9.44° C | 68% | 1013 hPa | 0 mm | 1.79 m/s, 75° | 0 W/m² | - |
| 1778046628 | 9.44° C | 68% | 1012.9 hPa | 0 mm | 1.34 m/s, 48° | 0 W/m² | - |
| 1778046328 | 9.44° C | 68% | 1012.9 hPa | 0 mm | 1.79 m/s, 52° | 0 W/m² | - |
| 1778046028 | 9.44° C | 69% | 1012.9 hPa | 0 mm | 1.79 m/s, 53° | 0 W/m² | - |
| 1778045728 | 9.44° C | 69% | 1012.9 hPa | 0 mm | 1.79 m/s, 40° | 0 W/m² | - |
| 1778045428 | 9.44° C | 69% | 1013 hPa | 0 mm | 1.79 m/s, 62° | 0 W/m² | - |
| 1778045128 | 9.44° C | 69% | 1012.9 hPa | 0 mm | 1.34 m/s, 56° | 0 W/m² | - |
| 1778044828 | 9.44° C | 69% | 1013 hPa | 0 mm | 1.34 m/s, 46° | 0 W/m² | - |
| 1778044528 | 9.44° C | 69% | 1013 hPa | 0 mm | 1.34 m/s, 43° | 0 W/m² | - |
| 1778044228 | 9.44° C | 70% | 1013 hPa | 0 mm | 0.89 m/s, 35° | 0 W/m² | - |
| 1778043928 | 9.44° C | 69% | 1013 hPa | 0 mm | 0.89 m/s, 29° | 0 W/m² | - |
| 1778043628 | 9.44° C | 69% | 1012.7 hPa | 0 mm | 1.34 m/s, 16° | 0 W/m² | - |
| 1778042728 | 9.44° C | 67% | 1012.7 hPa | 0 mm | 1.79 m/s, 55° | 0 W/m² | - |
| 1778042428 | 9.44° C | 66% | 1012.5 hPa | 0 mm | 1.79 m/s, 38° | 0 W/m² | - |
| 1778042128 | 9.44° C | 66% | 1012.7 hPa | 0 mm | 1.34 m/s, 17° | 0 W/m² | - |
| 1778041828 | 9.44° C | 65% | 1012.7 hPa | 0 mm | 1.79 m/s, 52° | 0 W/m² | - |
* Rain latest hour (hover to see other rain measurements)
** Current wind speed in m/s (hover to see current wind gust speed)